Time;durP1;ratioP1;P1;durP2;ratioP2;P2;SDS_P1;SDS_P2;PMS_P1;PMS_P2;Temp;Humidity;BMP_temperature;BMP_pressure;BME280_temperature;BME280_humidity;BME280_pressure;Samples;Min_cycle;Max_cycle;Signal;HPM_P1;HPM_P2
2022/02/19 00:00:44;;;;;;;;;;;;;;;4.10;76.11;100068.91;2567122;30;137250;-40
2022/02/19 00:03:12;;;;;;;;;;;;;;;4.12;75.28;100088.47;2566189;30;138210;-40
2022/02/19 00:05:40;;;;;;;;;;;;;;;4.16;73.92;100099.75;2568061;30;137012;-40
2022/02/19 00:08:09;;;;;;;;;;;;;;;4.15;74.68;100087.25;2568823;30;137148;-39
2022/02/19 00:10:37;;;;;;;;;;;;;;;4.16;72.48;100108.66;2569328;30;136706;-39
2022/02/19 00:13:04;;;;;;;;;;;;;;;4.23;72.18;100100.66;2568911;30;138154;-39
2022/02/19 00:15:33;;;;;;;;;;;;;;;4.22;72.91;100106.22;2567144;30;137611;-40
2022/02/19 00:18:00;;;;;;;;;;;;;;;4.15;73.83;100115.09;2567545;30;138764;-40
2022/02/19 00:20:30;;;;;;;;;;;;;;;4.25;72.50;100108.59;2567801;30;137149;-40
2022/02/19 00:22:59;;;;;;;;;;;;;;;4.24;73.27;100123.06;2569059;30;138934;-40
2022/02/19 00:25:27;;;;;;;;;;;;;;;4.20;72.79;100122.63;2570099;30;136719;-40
2022/02/19 00:27:55;;;;;;;;;;;;;;;4.29;71.47;100131.47;2568405;30;138887;-40
2022/02/19 00:30:24;;;;;;;;;;;;;;;4.31;70.24;100134.81;2568082;30;137313;-40
2022/02/19 00:32:52;;;;;;;;;;;;;;;4.38;69.46;100151.13;2568848;30;137348;-40
2022/02/19 00:35:22;;;;;;;;;;;;;;;4.38;69.97;100151.94;2567116;30;137170;-40
2022/02/19 00:37:49;;;;;;;;;;;;;;;4.39;69.83;100148.22;2568613;30;138142;-40
2022/02/19 00:40:20;;;;;;;;;;;;;;;4.41;69.62;100134.53;2568739;30;137209;-40
2022/02/19 00:42:48;;;;;;;;;;;;;;;4.45;69.38;100163.66;2569283;30;140086;-40
2022/02/19 00:45:16;;;;;;;;;;;;;;;4.43;69.68;100119.78;2569269;30;137080;-40
2022/02/19 00:47:44;;;;;;;;;;;;;;;4.47;68.93;100153.50;2567490;30;138139;-40
2022/02/19 00:50:13;;;;;;;;;;;;;;;4.55;67.38;100165.25;2568626;30;137276;-40
2022/02/19 00:52:41;;;;;;;;;;;;;;;4.58;68.41;100179.19;2570418;30;136693;-40
2022/02/19 00:55:09;;;;;;;;;;;;;;;4.57;68.31;100174.00;2565565;30;138504;-40
2022/02/19 00:57:37;;;;;;;;;;;;;;;4.56;68.24;100191.25;2568620;30;137388;-40
2022/02/19 01:00:05;;;;;;;;;;;;;;;4.60;67.26;100184.44;2568879;30;136801;-40
2022/02/19 01:02:43;;;;;;;;;;;;;;;4.63;67.42;100165.13;2569242;30;137865;-40
2022/02/19 01:05:14;;;;;;;;;;;;;;;4.65;66.34;100192.81;2569097;30;138604;-40
2022/02/19 01:07:42;;;;;;;;;;;;;;;4.67;67.20;100204.25;2568667;30;138552;-40
2022/02/19 01:10:14;;;;;;;;;;;;;;;4.65;66.98;100206.31;2568226;30;136802;-40
2022/02/19 01:12:42;;;;;;;;;;;;;;;4.65;66.94;100205.50;2568251;30;139130;-40
2022/02/19 01:15:11;;;;;;;;;;;;;;;4.65;66.68;100216.31;2568692;30;136722;-40
2022/02/19 01:17:39;;;;;;;;;;;;;;;4.63;66.42;100212.91;2568120;30;138523;-40
2022/02/19 01:20:11;;;;;;;;;;;;;;;4.63;66.32;100196.72;2577329;30;137120;-38
2022/02/19 01:22:39;;;;;;;;;;;;;;;4.55;66.58;100206.59;2569672;30;139607;-38
2022/02/19 01:25:12;;;;;;;;;;;;;;;4.48;67.24;100216.50;2570870;30;136862;-38
2022/02/19 01:27:49;;;;;;;;;;;;;;;4.49;67.40;100231.66;2568733;30;138993;-39
2022/02/19 01:30:18;;;;;;;;;;;;;;;4.44;68.47;100212.50;2570131;30;138820;-41
2022/02/19 01:32:47;;;;;;;;;;;;;;;4.42;68.39;100218.06;2570920;30;139536;-41
2022/02/19 01:35:15;;;;;;;;;;;;;;;4.35;68.33;100240.59;2568925;30;139303;-41
2022/02/19 01:37:45;;;;;;;;;;;;;;;4.39;68.11;100226.53;2570239;30;139662;-41
2022/02/19 01:40:13;;;;;;;;;;;;;;;4.40;68.75;100225.53;2569465;30;137531;-38
2022/02/19 01:42:48;;;;;;;;;;;;;;;4.35;68.87;100232.50;2570859;30;137899;-41
2022/02/19 01:45:17;;;;;;;;;;;;;;;4.31;69.28;100238.28;2570677;30;136952;-41
2022/02/19 01:47:45;;;;;;;;;;;;;;;4.31;69.17;100245.56;2571214;30;137842;-41
2022/02/19 01:50:16;;;;;;;;;;;;;;;4.34;68.19;100247.88;2568623;30;137368;-41
2022/02/19 01:52:47;;;;;;;;;;;;;;;4.31;69.40;100253.66;2569354;30;140958;-41
2022/02/19 01:55:38;;;;;;;;;;;;;;;4.28;68.84;100259.44;2571048;30;137515;-38
2022/02/19 01:58:12;;;;;;;;;;;;;;;4.24;68.99;100274.31;2567271;30;138330;-38
2022/02/19 02:01:06;;;;;;;;;;;;;;;4.33;68.74;100278.63;2567983;30;136827;-38
2022/02/19 02:03:57;;;;;;;;;;;;;;;4.42;67.45;100266.69;2570285;30;137774;-38
2022/02/19 02:06:30;;;;;;;;;;;;;;;4.49;67.28;100285.72;2568850;30;139424;-41
2022/02/19 02:09:01;;;;;;;;;;;;;;;4.56;66.37;100288.50;2566643;30;139265;-41
2022/02/19 02:11:35;;;;;;;;;;;;;;;4.62;65.77;100301.28;2570183;30;137047;-41
2022/02/19 02:14:04;;;;;;;;;;;;;;;4.64;65.71;100311.88;2568481;30;140172;-41
2022/02/19 02:17:00;;;;;;;;;;;;;;;4.64;65.63;100315.44;2569376;30;139334;-38
2022/02/19 02:19:28;;;;;;;;;;;;;;;4.64;66.23;100315.44;2569389;30;140234;-38
2022/02/19 02:22:05;;;;;;;;;;;;;;;4.65;66.18;100322.50;2568207;30;137008;-38
2022/02/19 02:24:35;;;;;;;;;;;;;;;4.65;65.86;100329.78;2570933;30;139983;-38
2022/02/19 02:27:04;;;;;;;;;;;;;;;4.62;66.13;100325.59;2569376;30;138655;-38
2022/02/19 02:29:38;;;;;;;;;;;;;;;4.61;66.51;100337.44;2569030;30;139779;-38
2022/02/19 02:32:07;;;;;;;;;;;;;;;4.58;66.02;100340.50;2568163;30;139231;-38
2022/02/19 02:34:46;;;;;;;;;;;;;;;4.61;66.56;100350.94;2569483;30;138336;-38
2022/02/19 02:37:15;;;;;;;;;;;;;;;4.55;66.32;100357.09;2570192;30;136966;-38
2022/02/19 02:39:42;;;;;;;;;;;;;;;4.58;66.49;100362.13;2569487;30;138256;-38
2022/02/19 02:42:10;;;;;;;;;;;;;;;4.57;66.19;100363.97;2569570;30;137153;-39
2022/02/19 02:44:39;;;;;;;;;;;;;;;4.55;66.48;100379.53;2569146;30;140286;-38
2022/02/19 02:47:09;;;;;;;;;;;;;;;4.55;67.12;100373.28;2569813;30;137104;-38
2022/02/19 02:49:36;;;;;;;;;;;;;;;4.53;67.32;100384.28;2569171;30;140141;-38
2022/02/19 02:52:08;;;;;;;;;;;;;;;4.54;66.23;100385.13;2569210;30;139527;-38
2022/02/19 02:54:39;;;;;;;;;;;;;;;4.49;67.28;100384.81;2569270;30;140530;-38
2022/02/19 02:57:07;;;;;;;;;;;;;;;4.51;67.19;100390.88;2569328;30;138427;-38
2022/02/19 02:59:36;;;;;;;;;;;;;;;4.47;68.17;100401.22;2568347;30;139659;-38
2022/02/19 03:02:09;;;;;;;;;;;;;;;4.49;69.21;100407.28;2570504;30;137771;-41
2022/02/19 03:04:37;;;;;;;;;;;;;;;4.47;67.47;100406.63;2567537;30;137557;-38
2022/02/19 03:07:05;;;;;;;;;;;;;;;4.44;68.39;100405.13;2568189;30;139026;-38
2022/02/19 03:09:33;;;;;;;;;;;;;;;4.44;68.24;100410.50;2568801;30;138018;-38
2022/02/19 03:12:00;;;;;;;;;;;;;;;4.44;68.14;100432.13;2568469;30;139196;-38
2022/02/19 03:14:31;;;;;;;;;;;;;;;4.38;75.27;100437.44;2567047;30;138699;-41
2022/02/19 03:16:59;;;;;;;;;;;;;;;4.21;74.24;100431.28;2565863;30;137411;-41
2022/02/19 03:19:26;;;;;;;;;;;;;;;4.11;76.13;100434.22;2570033;30;138889;-38
2022/02/19 03:21:55;;;;;;;;;;;;;;;4.11;74.59;100445.88;2568112;30;139337;-38
2022/02/19 03:24:22;;;;;;;;;;;;;;;4.11;75.77;100450.44;2569054;30;140718;-40
2022/02/19 03:26:50;;;;;;;;;;;;;;;4.11;73.82;100450.44;2568819;30;138626;-38
2022/02/19 03:29:20;;;;;;;;;;;;;;;4.06;74.19;100452.84;2570014;30;138670;-38
2022/02/19 03:31:50;;;;;;;;;;;;;;;4.03;75.02;100467.56;2571021;30;137230;-38
2022/02/19 03:34:23;;;;;;;;;;;;;;;3.99;73.63;100466.22;2567087;30;139238;-38
2022/02/19 03:36:50;;;;;;;;;;;;;;;4.01;73.73;100480.38;2567589;30;136790;-38
2022/02/19 03:39:19;;;;;;;;;;;;;;;4.04;72.47;100480.03;2567053;30;140428;-38
2022/02/19 03:41:46;;;;;;;;;;;;;;;4.03;72.87;100481.88;2570132;30;139159;-38
2022/02/19 03:44:16;;;;;;;;;;;;;;;4.10;72.05;100492.81;2569784;30;139119;-38
2022/02/19 03:46:53;;;;;;;;;;;;;;;4.08;73.89;100486.75;2570534;30;137972;-38
2022/02/19 03:49:30;;;;;;;;;;;;;;;4.08;72.79;100497.53;2570011;30;140472;-38
2022/02/19 03:51:58;;;;;;;;;;;;;;;4.11;73.19;100502.59;2569513;30;137353;-38
2022/02/19 03:54:26;;;;;;;;;;;;;;;4.11;72.23;100509.84;2571056;30;140795;-38
2022/02/19 03:56:54;;;;;;;;;;;;;;;4.12;71.61;100516.94;2572154;30;137894;-38
2022/02/19 03:59:21;;;;;;;;;;;;;;;4.12;71.64;100522.34;2570226;30;140246;-38
2022/02/19 04:01:54;;;;;;;;;;;;;;;4.21;71.07;100518.56;2571484;30;139385;-38
2022/02/19 04:04:23;;;;;;;;;;;;;;;4.17;71.99;100533.44;2569789;30;138255;-38
2022/02/19 04:06:52;;;;;;;;;;;;;;;4.17;71.17;100549.66;2569582;30;137132;-38
2022/02/19 04:09:40;;;;;;;;;;;;;;;4.18;70.61;100552.16;2570136;30;137145;-41
2022/02/19 04:12:09;;;;;;;;;;;;;;;4.16;71.25;100553.38;2569604;30;137339;-41
2022/02/19 04:14:38;;;;;;;;;;;;;;;4.12;71.82;100565.56;2570533;30;139306;-41
2022/02/19 04:17:07;;;;;;;;;;;;;;;4.11;71.58;100567.41;2569624;30;138872;-38
2022/02/19 04:19:36;;;;;;;;;;;;;;;4.09;71.05;100577.53;2568568;30;139171;-38
2022/02/19 04:22:03;;;;;;;;;;;;;;;4.06;71.49;100591.38;2571916;30;137102;-38
2022/02/19 04:24:32;;;;;;;;;;;;;;;4.08;72.05;100600.16;2569391;30;139650;-38
2022/02/19 04:27:11;;;;;;;;;;;;;;;4.06;72.33;100599.47;2570851;30;138826;-38
2022/02/19 04:29:39;;;;;;;;;;;;;;;4.07;72.19;100614.66;2570599;30;139684;-38
2022/02/19 04:32:09;;;;;;;;;;;;;;;4.07;71.90;100603.00;2569259;30;137976;-38
2022/02/19 04:34:47;;;;;;;;;;;;;;;4.03;72.45;100619.56;2571916;30;140389;-38
2022/02/19 04:37:18;;;;;;;;;;;;;;;4.00;71.78;100619.91;2569615;30;137138;-38
2022/02/19 04:39:46;;;;;;;;;;;;;;;3.96;71.74;100621.28;2570022;30;139742;-38
2022/02/19 04:42:25;;;;;;;;;;;;;;;3.92;72.34;100625.34;2569297;30;137233;-39
2022/02/19 04:44:55;;;;;;;;;;;;;;;3.89;73.36;100634.63;2571853;30;139328;-38
2022/02/19 04:47:23;;;;;;;;;;;;;;;3.93;73.24;100635.13;2571309;30;138712;-38
2022/02/19 04:49:51;;;;;;;;;;;;;;;3.90;72.40;100635.47;2568762;30;139653;-38
2022/02/19 04:52:19;;;;;;;;;;;;;;;3.78;73.11;100637.69;2569957;30;139280;-38
2022/02/19 04:54:47;;;;;;;;;;;;;;;3.79;73.44;100635.84;2569687;30;140133;-38
2022/02/19 04:57:19;;;;;;;;;;;;;;;3.70;73.27;100651.19;2568058;30;139625;-38
2022/02/19 04:59:48;;;;;;;;;;;;;;;3.65;73.43;100656.25;2569515;30;138493;-38
2022/02/19 05:02:17;;;;;;;;;;;;;;;3.62;74.44;100653.91;2569686;30;136903;-38
2022/02/19 05:04:49;;;;;;;;;;;;;;;3.56;74.14;100661.69;2567341;30;139497;-41
2022/02/19 05:07:22;;;;;;;;;;;;;;;3.54;74.23;100662.84;2569933;30;138877;-41
2022/02/19 05:09:50;;;;;;;;;;;;;;;3.52;74.15;100687.31;2567919;30;139722;-41
2022/02/19 05:12:26;;;;;;;;;;;;;;;3.56;74.50;100685.97;2569479;30;136949;-38
2022/02/19 05:14:54;;;;;;;;;;;;;;;3.62;76.23;100702.47;2569175;30;140237;-38
2022/02/19 05:17:26;;;;;;;;;;;;;;;3.48;79.84;100685.97;2570041;30;139227;-38
2022/02/19 05:19:59;;;;;;;;;;;;;;;3.40;79.89;100694.06;2566516;30;138138;-38
2022/02/19 05:22:29;;;;;;;;;;;;;;;3.34;80.26;100700.13;2568095;30;138582;-38
2022/02/19 05:24:58;;;;;;;;;;;;;;;3.37;79.02;100684.47;2571192;30;139422;-38
2022/02/19 05:27:26;;;;;;;;;;;;;;;3.35;77.68;100691.88;2569683;30;139287;-38
2022/02/19 05:29:57;;;;;;;;;;;;;;;3.33;77.94;100676.88;2572314;30;139303;-38
2022/02/19 05:32:26;;;;;;;;;;;;;;;3.29;77.09;100704.16;2570187;30;137081;-38
2022/02/19 05:35:04;;;;;;;;;;;;;;;3.35;75.47;100712.59;2570381;30;140611;-38
2022/02/19 05:37:35;;;;;;;;;;;;;;;3.38;75.14;100712.25;2570183;30;139332;-38
2022/02/19 05:40:04;;;;;;;;;;;;;;;3.37;74.31;100705.19;2567815;30;140222;-38
2022/02/19 05:42:31;;;;;;;;;;;;;;;3.28;76.21;100721.38;2567941;30;138727;-38
2022/02/19 05:45:23;;;;;;;;;;;;;;;3.31;74.82;100728.25;2568768;30;140541;-41
2022/02/19 05:47:53;;;;;;;;;;;;;;;3.29;75.46;100733.84;2568500;30;138696;-41
2022/02/19 05:50:35;;;;;;;;;;;;;;;3.38;75.33;100728.44;2570126;30;139814;-40
2022/02/19 05:53:11;;;;;;;;;;;;;;;3.35;74.71;100734.16;2569823;30;138311;-41
2022/02/19 05:55:42;;;;;;;;;;;;;;;3.33;74.91;100738.88;2571540;30;139419;-41
2022/02/19 05:58:12;;;;;;;;;;;;;;;3.31;75.67;100745.28;2569073;30;137132;-38
2022/02/19 06:00:49;;;;;;;;;;;;;;;3.31;75.13;100739.03;2567003;30;140525;-40
2022/02/19 06:03:17;;;;;;;;;;;;;;;3.27;75.28;100743.09;2569465;30;139220;-40
2022/02/19 06:05:45;;;;;;;;;;;;;;;3.26;75.40;100742.25;2569656;30;139578;-40
2022/02/19 06:08:13;;;;;;;;;;;;;;;3.30;74.57;100753.53;2571392;30;138468;-40
2022/02/19 06:10:41;;;;;;;;;;;;;;;3.29;76.15;100758.09;2565918;30;141060;-40
2022/02/19 06:13:12;;;;;;;;;;;;;;;3.35;74.44;100766.53;2567341;30;138059;-40
2022/02/19 06:15:47;;;;;;;;;;;;;;;3.37;73.76;100769.91;2571365;30;138691;-40
2022/02/19 06:18:26;;;;;;;;;;;;;;;3.31;74.79;100764.19;2569780;30;138917;-40
2022/02/19 06:20:54;;;;;;;;;;;;;;;3.27;75.38;100761.97;2569167;30;139929;-40
2022/02/19 06:23:31;;;;;;;;;;;;;;;3.24;74.14;100776.66;2571057;30;136605;-40
2022/02/19 06:25:58;;;;;;;;;;;;;;;3.20;74.54;100779.81;2568701;30;138897;-40
2022/02/19 06:28:30;;;;;;;;;;;;;;;3.14;74.83;100775.94;2571385;30;137234;-40
2022/02/19 06:30:58;;;;;;;;;;;;;;;3.11;75.54;100776.25;2568634;30;139969;-40
2022/02/19 06:33:29;;;;;;;;;;;;;;;3.08;76.13;100776.59;2569597;30;139213;-40
2022/02/19 06:36:02;;;;;;;;;;;;;;;3.05;74.81;100788.56;2568618;30;140704;-40
2022/02/19 06:38:30;;;;;;;;;;;;;;;3.07;74.85;100797.34;2568629;30;138509;-40
2022/02/19 06:41:00;;;;;;;;;;;;;;;3.06;74.51;100808.25;2568814;30;139068;-40
2022/02/19 06:43:46;;;;;;;;;;;;;;;3.00;75.92;100802.53;2569116;30;137115;-40
2022/02/19 06:46:14;;;;;;;;;;;;;;;2.97;75.76;100808.25;2569608;30;140255;-41
2022/02/19 06:48:41;;;;;;;;;;;;;;;3.04;74.46;100803.03;2570651;30;136896;-40
2022/02/19 06:51:11;;;;;;;;;;;;;;;3.04;74.55;100811.09;2569182;30;140777;-40
2022/02/19 06:53:38;;;;;;;;;;;;;;;3.08;75.36;100814.34;2569330;30;138683;-40
2022/02/19 06:56:07;;;;;;;;;;;;;;;3.07;75.31;100823.44;2567922;30;139860;-40
2022/02/19 06:58:35;;;;;;;;;;;;;;;3.02;75.66;100813.13;2569346;30;138974;-40
2022/02/19 07:01:03;;;;;;;;;;;;;;;3.07;74.45;100818.91;2569423;30;138235;-40
2022/02/19 07:03:31;;;;;;;;;;;;;;;3.08;75.18;100817.03;2566665;30;138885;-40
2022/02/19 07:06:17;;;;;;;;;;;;;;;3.08;75.18;100827.81;2571042;30;136730;-40
2022/02/19 07:08:45;;;;;;;;;;;;;;;3.10;74.40;100833.88;2570243;30;139066;-40
2022/02/19 07:11:14;;;;;;;;;;;;;;;3.10;74.73;100832.03;2567425;30;139324;-40
2022/02/19 07:13:42;;;;;;;;;;;;;;;3.14;74.88;100840.63;2568336;30;137234;-39
2022/02/19 07:16:10;;;;;;;;;;;;;;;3.19;74.36;100859.03;2569330;30;139097;-40
2022/02/19 07:21:07;;;;;;;;;;;;;;;3.24;74.64;100878.25;2566468;30;154867;-40
2022/02/19 07:23:35;;;;;;;;;;;;;;;3.29;74.12;100876.75;2568687;30;138425;-40
2022/02/19 07:26:05;;;;;;;;;;;;;;;3.39;74.76;100890.13;2567179;30;139122;-40
2022/02/19 07:28:35;;;;;;;;;;;;;;;3.46;74.05;100890.31;2567485;30;140153;-40
2022/02/19 07:31:03;;;;;;;;;;;;;;;3.46;73.37;100898.41;2569136;30;137318;-40
2022/02/19 07:33:30;;;;;;;;;;;;;;;3.51;72.96;100896.06;2566880;30;139713;-40
2022/02/19 07:36:05;;;;;;;;;;;;;;;3.50;73.10;100904.31;2567185;30;137201;-40
2022/02/19 07:38:35;;;;;;;;;;;;;;;3.53;73.35;100896.75;2567350;30;140010;-40
2022/02/19 07:41:03;;;;;;;;;;;;;;;3.55;73.18;100901.94;2567618;30;137444;-40
2022/02/19 07:44:00;;;;;;;;;;;;;;;3.57;73.61;100911.59;2566689;30;137406;-40
2022/02/19 07:46:45;;;;;;;;;;;;;;;3.64;73.01;100921.72;2567134;30;136820;-40
2022/02/19 07:58:45;;;;;;;;;;;;;;;3.86;72.33;100950.78;2566581;30;137041;-40
2022/02/19 08:01:13;;;;;;;;;;;;;;;3.96;72.92;100958.75;2565605;30;139681;-40
2022/02/19 08:03:44;;;;;;;;;;;;;;;4.07;72.37;100967.53;2566868;30;139166;-40
2022/02/19 08:06:12;;;;;;;;;;;;;;;4.15;72.10;100968.38;2567918;30;139962;-40
2022/02/19 08:08:41;;;;;;;;;;;;;;;4.12;71.80;100974.13;2565922;30;138478;-40
2022/02/19 08:11:14;;;;;;;;;;;;;;;4.07;72.06;100970.22;2567752;30;139740;-40
2022/02/19 08:13:42;;;;;;;;;;;;;;;4.05;73.25;100978.50;2566824;30;138209;-40
2022/02/19 08:16:09;;;;;;;;;;;;;;;4.03;73.72;100986.75;2569111;30;138415;-40
2022/02/19 08:18:38;;;;;;;;;;;;;;;4.00;73.81;100994.38;2568900;30;137144;-40
2022/02/19 08:21:06;;;;;;;;;;;;;;;3.92;73.14;100995.19;2567761;30;138276;-40
2022/02/19 08:23:34;;;;;;;;;;;;;;;3.86;73.58;100995.84;2568509;30;136889;-40
2022/02/19 08:26:01;;;;;;;;;;;;;;;3.84;74.68;101003.22;2567947;30;138302;-40
2022/02/19 08:28:29;;;;;;;;;;;;;;;3.94;73.87;100998.56;2565437;30;137107;-40
2022/02/19 08:30:57;;;;;;;;;;;;;;;4.10;73.18;101005.00;2567581;30;138441;-40
2022/02/19 08:33:25;;;;;;;;;;;;;;;4.20;73.01;100994.91;2568235;30;137168;-40
2022/02/19 08:35:53;;;;;;;;;;;;;;;4.44;72.06;100999.47;2568185;30;139323;-40
2022/02/19 08:38:21;;;;;;;;;;;;;;;4.54;72.66;101003.91;2567827;30;137398;-40
2022/02/19 08:40:48;;;;;;;;;;;;;;;4.55;71.19;101000.19;2569467;30;139363;-40
2022/02/19 08:43:16;;;;;;;;;;;;;;;4.45;70.90;101003.03;2569038;30;137406;-40
2022/02/19 08:45:46;;;;;;;;;;;;;;;4.45;71.36;101000.34;2568090;30;138235;-40
2022/02/19 08:48:14;;;;;;;;;;;;;;;4.54;72.06;101010.13;2569274;30;136773;-40
2022/02/19 08:50:41;;;;;;;;;;;;;;;4.81;71.58;101007.28;2567097;30;138176;-40
2022/02/19 08:53:10;;;;;;;;;;;;;;;4.96;71.34;101005.56;2567136;30;137096;-40
2022/02/19 08:55:39;;;;;;;;;;;;;;;5.02;70.93;101018.38;2568322;30;138086;-40
2022/02/19 08:58:08;;;;;;;;;;;;;;;5.07;70.63;101014.34;2568912;30;137673;-40
2022/02/19 09:00:36;;;;;;;;;;;;;;;5.08;70.26;101014.16;2569743;30;138304;-40
2022/02/19 09:03:04;;;;;;;;;;;;;;;5.01;69.77;101023.97;2568458;30;137825;-40
2022/02/19 09:05:32;;;;;;;;;;;;;;;5.07;70.11;101030.56;2568579;30;138985;-40
2022/02/19 09:08:00;;;;;;;;;;;;;;;5.18;70.09;101032.91;2568882;30;137836;-40
2022/02/19 09:10:30;;;;;;;;;;;;;;;5.20;71.42;101051.69;2568285;30;138833;-40
2022/02/19 09:12:58;;;;;;;;;;;;;;;5.23;68.81;101043.22;2569121;30;137416;-40
2022/02/19 09:15:26;;;;;;;;;;;;;;;5.23;69.33;101054.88;2566920;30;138980;-40
2022/02/19 09:17:54;;;;;;;;;;;;;;;5.19;68.54;101042.72;2567398;30;137134;-40
2022/02/19 09:20:22;;;;;;;;;;;;;;;5.25;68.96;101033.91;2568834;30;139065;-40
2022/02/19 09:22:50;;;;;;;;;;;;;;;5.36;68.16;101043.53;2568828;30;137785;-40
2022/02/19 09:25:18;;;;;;;;;;;;;;;5.45;68.26;101028.97;2566392;30;138226;-40
2022/02/19 09:27:46;;;;;;;;;;;;;;;5.57;68.17;101042.13;2568842;30;137372;-40
2022/02/19 09:30:14;;;;;;;;;;;;;;;5.48;67.65;101030.47;2569195;30;138333;-40
2022/02/19 09:32:42;;;;;;;;;;;;;;;5.51;68.44;101046.34;2568734;30;136610;-40
2022/02/19 09:35:12;;;;;;;;;;;;;;;5.59;67.64;101035.53;2569195;30;138446;-40
2022/02/19 09:37:40;;;;;;;;;;;;;;;5.74;67.99;101043.75;2568279;30;136941;-40
2022/02/19 09:40:09;;;;;;;;;;;;;;;5.78;67.12;101041.53;2567513;30;139504;-40
2022/02/19 09:42:37;;;;;;;;;;;;;;;5.84;67.70;101045.41;2570285;30;137312;-40
2022/02/19 09:45:07;;;;;;;;;;;;;;;5.73;66.61;101046.63;2565346;30;138493;-40
2022/02/19 09:47:36;;;;;;;;;;;;;;;5.67;68.32;101055.47;2568487;30;137239;-40
2022/02/19 09:50:04;;;;;;;;;;;;;;;5.67;67.01;101064.41;2567483;30;138283;-40
2022/02/19 09:52:32;;;;;;;;;;;;;;;5.59;67.14;101065.31;2566699;30;137320;-40
2022/02/19 09:55:01;;;;;;;;;;;;;;;5.54;67.55;101062.25;2567871;30;138037;-40
2022/02/19 09:57:29;;;;;;;;;;;;;;;5.55;67.38;101068.53;2568912;30;136976;-40
2022/02/19 09:59:57;;;;;;;;;;;;;;;5.52;66.70;101068.88;2568353;30;137109;-40
2022/02/19 10:02:29;;;;;;;;;;;;;;;5.49;67.15;101071.91;2568698;30;137265;-40
2022/02/19 10:05:13;;;;;;;;;;;;;;;5.66;67.91;101057.31;2568744;30;137416;-41
2022/02/19 10:07:42;;;;;;;;;;;;;;;5.73;66.36;101077.28;2565915;30;137366;-40
2022/02/19 10:10:30;;;;;;;;;;;;;;;5.78;66.38;101075.91;2568630;30;137663;-40
2022/02/19 10:12:58;;;;;;;;;;;;;;;5.86;65.46;101074.00;2567660;30;137835;-40
2022/02/19 10:15:46;;;;;;;;;;;;;;;5.87;65.14;101066.72;2568145;30;137708;-40
2022/02/19 10:18:32;;;;;;;;;;;;;;;6.01;64.43;101070.56;2569078;30;137742;-40
2022/02/19 10:21:10;;;;;;;;;;;;;;;5.97;65.48;101070.06;2568034;30;137620;-40
2022/02/19 10:23:41;;;;;;;;;;;;;;;5.88;65.82;101085.50;2569128;30;137295;-40
2022/02/19 10:26:09;;;;;;;;;;;;;;;5.94;66.48;101078.53;2567024;30;139028;-40
2022/02/19 10:28:37;;;;;;;;;;;;;;;6.05;66.48;101077.31;2568357;30;136616;-40
2022/02/19 10:31:11;;;;;;;;;;;;;;;6.17;64.71;101080.50;2567747;30;137249;-40
2022/02/19 10:33:39;;;;;;;;;;;;;;;6.43;63.75;101093.75;2569436;30;136998;-40
2022/02/19 10:36:14;;;;;;;;;;;;;;;6.72;63.03;101078.63;2566693;30;139048;-40
2022/02/19 10:38:56;;;;;;;;;;;;;;;6.98;62.81;101095.56;2568493;30;137378;-40
2022/02/19 10:41:34;;;;;;;;;;;;;;;7.10;62.18;101095.97;2567778;30;138849;-40
2022/02/19 10:44:18;;;;;;;;;;;;;;;7.33;61.63;101093.22;2569133;30;137067;-40
2022/02/19 10:46:46;;;;;;;;;;;;;;;7.56;60.79;101095.88;2567744;30;138882;-41
2022/02/19 10:49:14;;;;;;;;;;;;;;;7.70;61.07;101101.50;2568858;30;136890;-40
2022/02/19 10:51:44;;;;;;;;;;;;;;;7.70;61.15;101096.09;2568337;30;138975;-40
2022/02/19 10:54:17;;;;;;;;;;;;;;;7.74;61.96;101102.81;2568872;30;137337;-40
2022/02/19 10:56:45;;;;;;;;;;;;;;;7.71;60.04;101090.44;2567468;30;138063;-40
2022/02/19 10:59:15;;;;;;;;;;;;;;;7.76;59.40;101084.47;2568660;30;137108;-40
2022/02/19 11:01:43;;;;;;;;;;;;;;;7.83;62.61;101087.28;2566713;30;137170;-40
2022/02/19 11:04:13;;;;;;;;;;;;;;;7.89;60.46;101083.81;2568539;30;137818;-40
2022/02/19 11:06:41;;;;;;;;;;;;;;;7.92;59.73;101086.13;2567502;30;138072;-40
2022/02/19 11:09:10;;;;;;;;;;;;;;;7.99;59.17;101084.34;2569384;30;137327;-40
2022/02/19 11:11:39;;;;;;;;;;;;;;;8.13;59.85;101068.22;2566145;30;137372;-40
2022/02/19 11:14:09;;;;;;;;;;;;;;;8.26;59.27;101086.56;2567582;30;137192;-40
2022/02/19 11:16:37;;;;;;;;;;;;;;;8.16;57.53;101093.13;2569217;30;138489;-41
2022/02/19 11:19:05;;;;;;;;;;;;;;;8.08;57.14;101076.94;2567168;30;137888;-40
2022/02/19 11:21:36;;;;;;;;;;;;;;;8.17;57.28;101089.38;2568204;30;138107;-40
2022/02/19 11:24:06;;;;;;;;;;;;;;;8.30;60.73;101082.44;2569358;30;137079;-40
2022/02/19 11:26:34;;;;;;;;;;;;;;;8.09;58.50;101085.91;2566869;30;138351;-40
2022/02/19 11:29:03;;;;;;;;;;;;;;;7.94;58.93;101088.66;2567305;30;136793;-40
2022/02/19 11:31:33;;;;;;;;;;;;;;;7.74;60.28;101086.53;2567490;30;138996;-40
2022/02/19 11:34:04;;;;;;;;;;;;;;;7.59;60.52;101083.81;2569649;30;137346;-40
2022/02/19 11:36:33;;;;;;;;;;;;;;;7.56;60.00;101090.44;2568395;30;138293;-40
2022/02/19 11:39:02;;;;;;;;;;;;;;;7.61;57.66;101092.59;2568069;30;137111;-40
2022/02/19 11:41:40;;;;;;;;;;;;;;;7.63;58.69;101087.84;2568221;30;138322;-40
2022/02/19 11:44:20;;;;;;;;;;;;;;;7.65;57.18;101093.91;2568135;30;137112;-40
2022/02/19 11:46:48;;;;;;;;;;;;;;;7.56;58.23;101093.16;2567413;30;137123;-40
2022/02/19 11:49:16;;;;;;;;;;;;;;;7.49;58.00;101106.63;2567130;30;137114;-40
2022/02/19 11:51:44;;;;;;;;;;;;;;;7.49;58.51;101103.06;2568242;30;137915;-41
2022/02/19 11:54:33;;;;;;;;;;;;;;;7.43;57.65;101118.22;2567011;30;138007;-40
2022/02/19 11:57:18;;;;;;;;;;;;;;;7.41;55.47;101103.13;2567513;30;138116;-40
2022/02/19 11:59:47;;;;;;;;;;;;;;;7.52;55.38;101108.13;2568598;30;137017;-40
2022/02/19 12:02:18;;;;;;;;;;;;;;;7.54;54.94;101102.50;2564369;38;137609;-40
2022/02/19 12:05:18;;;;;;;;;;;;;;;7.43;55.60;101103.81;2568284;30;137090;-40
2022/02/19 12:07:56;;;;;;;;;;;;;;;7.48;56.24;101085.94;2567063;30;138324;-40
2022/02/19 12:10:24;;;;;;;;;;;;;;;7.40;56.08;101101.47;2565535;30;137571;-40
2022/02/19 12:13:05;;;;;;;;;;;;;;;7.30;56.70;101082.75;2569203;30;136927;-40
2022/02/19 12:15:33;;;;;;;;;;;;;;;7.10;56.54;101094.09;2568971;30;138461;-40
2022/02/19 12:18:02;;;;;;;;;;;;;;;7.37;57.90;101094.53;2567525;30;138451;-40
2022/02/19 12:20:32;;;;;;;;;;;;;;;7.45;56.16;101088.19;2568720;30;137074;-40
2022/02/19 12:23:03;;;;;;;;;;;;;;;7.41;55.50;101087.72;2569450;30;138098;-40
2022/02/19 12:25:50;;;;;;;;;;;;;;;7.42;57.22;101083.97;2567689;30;137168;-40
2022/02/19 12:28:18;;;;;;;;;;;;;;;7.44;56.61;101087.34;2569600;30;139663;-40
2022/02/19 12:30:46;;;;;;;;;;;;;;;7.41;56.46;101095.00;2570270;30;136955;-40
2022/02/19 12:33:14;;;;;;;;;;;;;;;7.51;59.04;101103.75;2569608;30;138410;-40
2022/02/19 12:35:46;;;;;;;;;;;;;;;7.69;59.22;101084.38;2569234;30;136656;-40
2022/02/19 12:38:14;;;;;;;;;;;;;;;7.80;55.89;101074.03;2569457;30;137311;-40
2022/02/19 12:40:42;;;;;;;;;;;;;;;8.03;58.15;101077.50;2569663;30;137801;-40
2022/02/19 12:43:15;;;;;;;;;;;;;;;8.15;56.38;101064.25;2568516;30;138513;-40
2022/02/19 12:45:44;;;;;;;;;;;;;;;8.11;56.34;101054.81;2569162;30;137755;-40
2022/02/19 12:48:12;;;;;;;;;;;;;;;7.82;56.98;101063.84;2568461;30;137221;-40
2022/02/19 12:50:51;;;;;;;;;;;;;;;7.60;56.16;101061.88;2567905;30;137729;-40
2022/02/19 12:53:21;;;;;;;;;;;;;;;7.74;58.71;101059.38;2567186;30;138957;-40
2022/02/19 12:55:56;;;;;;;;;;;;;;;8.00;58.86;101047.16;2568285;30;136900;-40
2022/02/19 12:58:25;;;;;;;;;;;;;;;8.13;58.33;101050.03;2568681;30;138312;-41
2022/02/19 13:00:53;;;;;;;;;;;;;;;8.26;56.84;101045.78;2569426;30;136723;-40
2022/02/19 13:03:21;;;;;;;;;;;;;;;8.43;57.21;101051.84;2569398;30;138981;-40
2022/02/19 13:05:55;;;;;;;;;;;;;;;8.38;57.17;101043.41;2568995;30;137675;-40